createdAt,value
2023-01-11T00:01:20.537Z,5.10
2023-01-11T00:03:48.537Z,5.10
2023-01-11T00:06:16.720Z,5.10
2023-01-11T00:08:46.384Z,5.10
2023-01-11T00:11:16.639Z,5.10
2023-01-11T00:13:45.847Z,5.10
2023-01-11T00:16:14.510Z,5.10
2023-01-11T00:18:42.631Z,5.20
2023-01-11T00:21:13.121Z,5.10
2023-01-11T00:23:41.048Z,5.10
2023-01-11T00:26:14.653Z,5.10
2023-01-11T00:28:42.953Z,5.20
2023-01-11T00:31:11.355Z,5.20
2023-01-11T00:33:39.655Z,5.10
2023-01-11T00:36:08.640Z,5.10
2023-01-11T00:38:47.018Z,5.10
2023-01-11T00:41:34.720Z,5.20
2023-01-11T00:44:20.152Z,5.20
2023-01-11T00:47:06.269Z,5.30
2023-01-11T00:49:34.538Z,5.30
2023-01-11T00:52:05.380Z,5.30
2023-01-11T00:54:33.388Z,5.30
2023-01-11T00:57:02.906Z,5.30
2023-01-11T00:59:30.841Z,5.40
2023-01-11T01:01:58.805Z,5.30
2023-01-11T01:04:26.871Z,5.30
2023-01-11T01:06:54.937Z,5.30
2023-01-11T01:09:23.277Z,5.30
2023-01-11T01:11:51.193Z,5.30
2023-01-11T01:14:29.535Z,5.30
2023-01-11T01:16:59.072Z,5.20
2023-01-11T01:19:28.671Z,5.30
2023-01-11T01:21:57.319Z,5.30
2023-01-11T01:24:25.802Z,5.30
2023-01-11T01:26:55.772Z,5.30
2023-01-11T01:29:25.538Z,5.30
2023-01-11T01:31:53.558Z,5.20
2023-01-11T01:34:21.611Z,5.30
2023-01-11T01:36:49.622Z,5.20
2023-01-11T01:39:17.798Z,5.30
2023-01-11T01:41:45.983Z,5.30
2023-01-11T01:44:50.907Z,5.30
2023-01-11T01:47:22.565Z,5.40
2023-01-11T01:49:50.492Z,5.40
2023-01-11T01:52:21.243Z,5.40
2023-01-11T01:54:50.501Z,5.40
2023-01-11T01:57:23.442Z,5.40
2023-01-11T01:59:54.281Z,5.40
2023-01-11T02:02:26.182Z,5.40
2023-01-11T02:04:58.415Z,5.40
2023-01-11T02:07:30.420Z,5.40
2023-01-11T02:10:03.771Z,5.40
2023-01-11T02:12:37.868Z,5.30
2023-01-11T02:15:07.542Z,5.30
2023-01-11T02:17:37.297Z,5.40
2023-01-11T02:20:22.557Z,5.40
2023-01-11T02:23:26.623Z,5.40
2023-01-11T02:26:15.946Z,5.40
2023-01-11T02:28:52.395Z,5.50
2023-01-11T02:31:33.067Z,5.50
2023-01-11T02:34:15.254Z,5.50
2023-01-11T02:36:54.225Z,5.50
2023-01-11T02:39:38.818Z,5.50
2023-01-11T02:42:41.756Z,5.50
2023-01-11T02:45:19.894Z,5.50
2023-01-11T02:47:53.881Z,5.50
2023-01-11T02:50:26.142Z,5.50
2023-01-11T02:52:59.939Z,5.50
2023-01-11T02:55:32.479Z,5.50
2023-01-11T02:58:03.462Z,5.50
2023-01-11T03:00:37.176Z,5.50
2023-01-11T03:03:10.843Z,5.60
2023-01-11T03:05:44.875Z,5.50
2023-01-11T03:08:44.684Z,5.60
2023-01-11T03:11:36.385Z,5.60
2023-01-11T03:14:07.883Z,5.60
2023-01-11T03:16:41.871Z,5.60
2023-01-11T03:19:21.039Z,5.60
2023-01-11T03:21:54.559Z,5.70
2023-01-11T03:24:33.684Z,5.70
2023-01-11T03:27:13.237Z,5.70
2023-01-11T03:29:47.556Z,5.70
2023-01-11T03:32:26.092Z,5.70
2023-01-11T03:35:03.154Z,5.70
2023-01-11T03:37:36.559Z,5.80
2023-01-11T03:40:09.529Z,5.80
2023-01-11T03:43:00.122Z,5.80
2023-01-11T03:45:58.858Z,5.80
2023-01-11T03:48:34.096Z,5.70
2023-01-11T03:51:06.581Z,5.80
2023-01-11T03:53:37.938Z,5.80
2023-01-11T03:56:09.651Z,5.80
2023-01-11T03:58:37.729Z,5.80
2023-01-11T04:01:06.103Z,5.80
2023-01-11T04:03:35.820Z,5.90
2023-01-11T04:06:04.254Z,5.90
2023-01-11T04:08:32.220Z,5.90
2023-01-11T04:11:00.246Z,5.90
2023-01-11T04:13:28.177Z,5.90
2023-01-11T04:15:56.163Z,5.90
2023-01-11T04:18:24.101Z,5.90
2023-01-11T04:20:53.558Z,5.90
2023-01-11T04:23:21.899Z,5.90
2023-01-11T04:25:49.893Z,6.00
2023-01-11T04:28:18.060Z,5.90
2023-01-11T04:30:46.020Z,6.00
2023-01-11T04:33:14.450Z,6.00
2023-01-11T04:35:43.906Z,5.90
2023-01-11T04:38:13.314Z,5.90
2023-01-11T04:40:41.399Z,5.90
2023-01-11T04:43:08.651Z,6.00
2023-01-11T04:45:36.847Z,5.90
2023-01-11T04:48:04.848Z,6.00
2023-01-11T04:50:32.818Z,6.00
2023-01-11T04:53:00.835Z,6.00
2023-01-11T04:55:30.067Z,6.00
2023-01-11T04:57:58.004Z,6.00
2023-01-11T05:00:26.078Z,6.00
2023-01-11T05:02:54.124Z,6.00
2023-01-11T05:05:22.170Z,6.00
2023-01-11T05:07:50.202Z,6.10
2023-01-11T05:10:20.888Z,6.10
2023-01-11T05:12:53.423Z,6.10
2023-01-11T05:15:21.484Z,6.10
2023-01-11T05:17:49.733Z,6.10
2023-01-11T05:20:18.213Z,6.20
2023-01-11T05:22:46.527Z,6.20
2023-01-11T05:25:14.409Z,6.20
2023-01-11T05:27:42.339Z,6.20
2023-01-11T05:30:13.032Z,6.30
2023-01-11T05:32:43.699Z,6.30
2023-01-11T05:35:11.665Z,6.30
2023-01-11T05:37:39.686Z,6.40
2023-01-11T05:40:08.993Z,6.40
2023-01-11T05:42:37.911Z,6.40
2023-01-11T05:45:24.391Z,6.40
2023-01-11T05:47:55.724Z,6.30
2023-01-11T05:50:23.651Z,6.30
2023-01-11T05:52:51.702Z,6.40
2023-01-11T05:55:20.097Z,6.40
2023-01-11T05:57:47.972Z,6.40
2023-01-11T06:00:16.857Z,6.40
2023-01-11T06:02:44.939Z,6.40
2023-01-11T06:05:14.602Z,6.40
2023-01-11T06:07:42.575Z,6.40
2023-01-11T06:10:11.690Z,6.40
2023-01-11T06:12:40.054Z,6.40
2023-01-11T06:15:09.121Z,6.50
2023-01-11T06:17:37.026Z,6.50
2023-01-11T06:20:05.779Z,6.50
2023-01-11T06:22:35.011Z,6.50
2023-01-11T06:25:02.954Z,6.50
2023-01-11T06:27:33.709Z,6.50
2023-01-11T06:30:01.629Z,6.60
2023-01-11T06:32:30.555Z,6.60
2023-01-11T06:34:58.432Z,6.60
2023-01-11T06:37:26.371Z,6.60
2023-01-11T06:39:55.641Z,6.60
2023-01-11T06:42:23.652Z,6.60
2023-01-11T06:44:51.569Z,6.60
2023-01-11T06:47:19.499Z,6.60
2023-01-11T06:49:47.551Z,6.60
2023-01-11T06:52:15.541Z,6.60
2023-01-11T06:54:43.526Z,6.60
2023-01-11T06:57:12.881Z,6.60
2023-01-11T06:59:41.841Z,6.70
2023-01-11T07:02:13.427Z,6.70
2023-01-11T07:04:43.416Z,6.70
2023-01-11T07:07:11.561Z,6.70
2023-01-11T07:09:39.619Z,6.80
2023-01-11T07:12:07.544Z,6.80
2023-01-11T07:14:36.859Z,6.80
2023-01-11T07:17:04.794Z,6.80
2023-01-11T07:19:32.663Z,6.80
2023-01-11T07:22:00.563Z,6.90
2023-01-11T07:24:28.496Z,7.00
2023-01-11T07:26:59.580Z,7.00
2023-01-11T07:29:27.550Z,7.00
2023-01-11T07:31:56.820Z,7.00
2023-01-11T07:34:25.404Z,7.00
2023-01-11T07:36:53.496Z,7.10
2023-01-11T07:39:26.841Z,7.10
2023-01-11T07:42:17.107Z,7.10
2023-01-11T07:44:45.368Z,7.10
2023-01-11T07:47:14.686Z,7.10
2023-01-11T07:49:42.605Z,7.20
2023-01-11T07:52:10.585Z,7.20
2023-01-11T07:54:38.532Z,7.20
2023-01-11T07:57:06.431Z,7.20
2023-01-11T07:59:34.451Z,7.20
2023-01-11T08:02:02.565Z,7.20
2023-01-11T08:04:31.869Z,7.30
2023-01-11T08:06:59.928Z,7.30
2023-01-11T08:09:27.850Z,7.30
2023-01-11T08:12:13.177Z,7.30
2023-01-11T08:14:41.216Z,7.30
2023-01-11T08:17:10.926Z,7.30
2023-01-11T08:19:40.209Z,7.30
2023-01-11T08:22:09.063Z,7.30
2023-01-11T08:24:40.014Z,7.30
2023-01-11T08:27:08.121Z,7.40
2023-01-11T08:29:36.999Z,7.40
2023-01-11T08:32:07.018Z,7.40
2023-01-11T08:34:35.961Z,7.40
2023-01-11T08:37:05.691Z,7.40
2023-01-11T08:39:33.896Z,7.40
2023-01-11T08:42:03.044Z,7.40
2023-01-11T08:44:34.846Z,7.50
2023-01-11T08:47:03.209Z,7.40
2023-01-11T08:49:31.455Z,7.50
2023-01-11T08:51:59.480Z,7.50
2023-01-11T08:54:28.790Z,7.50
2023-01-11T08:56:56.885Z,7.50
2023-01-11T08:59:24.985Z,7.50
2023-01-11T09:01:53.081Z,7.50
2023-01-11T09:04:25.277Z,7.60
2023-01-11T09:06:54.072Z,7.50
2023-01-11T09:09:22.502Z,7.60
2023-01-11T09:11:56.633Z,7.60
2023-01-11T09:14:26.301Z,7.70
2023-01-11T09:16:55.450Z,7.70
2023-01-11T09:19:24.382Z,7.80
2023-01-11T09:21:53.109Z,7.70
2023-01-11T09:24:21.114Z,7.80
2023-01-11T09:26:49.313Z,7.80
2023-01-11T09:29:19.035Z,7.80
2023-01-11T09:31:47.787Z,7.90
2023-01-11T09:34:16.044Z,7.90
2023-01-11T09:36:46.172Z,7.90
2023-01-11T09:39:17.049Z,7.90
2023-01-11T09:42:11.256Z,7.90
2023-01-11T09:44:49.747Z,7.90
2023-01-11T09:47:26.375Z,7.90
2023-01-11T09:49:58.296Z,8.00
2023-01-11T09:52:30.324Z,8.00
2023-01-11T09:54:59.483Z,8.00
2023-01-11T09:57:40.892Z,8.10
2023-01-11T10:00:21.578Z,8.00
2023-01-11T10:03:07.134Z,8.00
2023-01-11T10:05:51.557Z,8.10
2023-01-11T10:18:26.732Z,8.10
2023-01-11T10:18:38.364Z,8.20
2023-01-11T10:20:35.107Z,8.20
2023-01-11T10:23:11.184Z,8.20
2023-01-11T10:25:47.986Z,8.30
2023-01-11T10:28:25.088Z,8.30
2023-01-11T10:31:08.159Z,8.20
2023-01-11T10:33:55.121Z,8.20
2023-01-11T10:36:41.527Z,8.20
2023-01-11T10:39:39.703Z,8.30
2023-01-11T10:42:13.243Z,8.20
2023-01-11T10:44:47.119Z,8.30
2023-01-11T10:47:18.346Z,8.50
2023-01-11T10:49:53.363Z,8.40
2023-01-11T10:52:33.970Z,8.50
2023-01-11T10:55:04.430Z,8.50
2023-01-11T10:57:59.371Z,8.60
2023-01-11T11:00:36.554Z,8.60
2023-01-11T11:03:31.106Z,8.70
2023-01-11T11:06:06.427Z,8.80
2023-01-11T11:08:43.631Z,8.80
2023-01-11T11:11:15.133Z,8.80
2023-01-11T11:13:53.549Z,8.90
2023-01-11T11:16:36.316Z,9.00
2023-01-11T11:19:04.541Z,9.00
2023-01-11T11:21:39.275Z,9.20
2023-01-11T11:24:15.750Z,9.20
2023-01-11T11:26:48.449Z,9.30
2023-01-11T11:29:22.963Z,9.30
2023-01-11T11:31:51.912Z,9.60
2023-01-11T11:34:21.890Z,9.70
2023-01-11T11:36:53.172Z,9.70
2023-01-11T11:39:28.213Z,9.60
2023-01-11T11:41:58.283Z,9.60
2023-01-11T11:44:28.120Z,9.60
2023-01-11T11:47:00.954Z,9.50
2023-01-11T11:49:30.171Z,9.60
2023-01-11T11:52:08.397Z,9.50
2023-01-11T11:54:41.070Z,9.50
2023-01-11T11:57:22.868Z,9.60
2023-01-11T12:00:01.017Z,9.50
2023-01-11T12:02:31.801Z,9.40
2023-01-11T12:05:05.437Z,9.40
2023-01-11T12:07:49.698Z,9.50
2023-01-11T12:10:24.057Z,9.50
2023-01-11T12:12:56.392Z,9.50
2023-01-11T12:15:26.387Z,9.50
2023-01-11T12:18:15.519Z,9.50
2023-01-11T12:20:44.742Z,9.50
2023-01-11T12:23:20.010Z,9.50
2023-01-11T12:26:14.297Z,9.40
2023-01-11T12:28:57.660Z,9.40
2023-01-11T12:31:36.129Z,9.50
2023-01-11T12:34:18.341Z,9.50
2023-01-11T12:36:55.041Z,9.50
2023-01-11T12:39:36.803Z,9.50
2023-01-11T12:42:28.349Z,9.60
2023-01-11T12:45:08.846Z,9.60
2023-01-11T12:48:16.283Z,9.60
2023-01-11T12:50:56.866Z,9.60
2023-01-11T12:53:45.852Z,9.60
2023-01-11T12:56:55.565Z,9.60
2023-01-11T12:59:40.912Z,9.70
2023-01-11T13:02:33.181Z,9.70
2023-01-11T13:05:14.105Z,9.70
2023-01-11T13:07:52.331Z,9.70
2023-01-11T13:10:35.679Z,9.70
2023-01-11T13:13:12.479Z,9.60
2023-01-11T13:15:53.550Z,9.70
2023-01-11T13:18:30.936Z,9.70
2023-01-11T13:21:19.313Z,9.70
2023-01-11T13:23:51.106Z,9.70
2023-01-11T13:26:23.951Z,9.70
2023-01-11T13:29:00.721Z,9.70
2023-01-11T13:31:31.327Z,9.70
2023-01-11T13:34:03.790Z,9.70
2023-01-11T13:36:42.301Z,9.70
2023-01-11T13:39:17.500Z,9.60
2023-01-11T13:41:53.028Z,9.60
2023-01-11T13:44:25.795Z,9.60
2023-01-11T13:47:03.766Z,9.60
2023-01-11T13:50:00.550Z,9.50
2023-01-11T13:52:45.198Z,9.50
2023-01-11T13:55:26.183Z,9.60
2023-01-11T13:58:01.023Z,9.50
2023-01-11T14:00:39.889Z,9.50
2023-01-11T14:03:21.258Z,9.50
2023-01-11T14:06:06.717Z,9.50
2023-01-11T14:08:54.720Z,9.40
2023-01-11T14:11:32.855Z,9.30
2023-01-11T14:14:17.369Z,9.30
2023-01-11T14:16:59.895Z,9.30
2023-01-11T14:19:38.525Z,9.30
2023-01-11T14:22:15.422Z,9.30
2023-01-11T14:24:53.339Z,9.20
2023-01-11T14:27:44.656Z,9.20
2023-01-11T14:30:29.078Z,9.20
2023-01-11T14:33:30.329Z,9.20
2023-01-11T14:36:21.008Z,9.30
2023-01-11T14:39:20.995Z,9.30
2023-01-11T14:42:31.120Z,9.20
2023-01-11T14:45:13.628Z,9.20
2023-01-11T14:48:08.415Z,9.10
2023-01-11T14:50:49.645Z,9.20
2023-01-11T14:53:23.152Z,9.10
2023-01-11T14:55:53.015Z,9.00
2023-01-11T14:58:26.463Z,9.00
2023-01-11T15:01:13.453Z,8.90
2023-01-11T15:03:56.199Z,8.80
2023-01-11T15:06:24.974Z,8.80
2023-01-11T15:08:56.414Z,8.80
2023-01-11T15:11:35.016Z,8.80
2023-01-11T15:14:16.612Z,8.80
2023-01-11T15:17:12.477Z,8.80
2023-01-11T15:19:43.982Z,8.70
2023-01-11T15:22:25.893Z,8.70
2023-01-11T15:25:01.054Z,8.80
2023-01-11T15:27:34.270Z,8.90
2023-01-11T15:30:02.726Z,8.80
2023-01-11T15:32:33.044Z,8.80
2023-01-11T15:35:33.567Z,8.80
2023-01-11T15:38:09.900Z,8.70
2023-01-11T15:40:42.304Z,8.70
2023-01-11T15:43:35.587Z,8.70
2023-01-11T15:46:42.547Z,8.60
2023-01-11T15:49:38.377Z,8.50
2023-01-11T15:52:50.560Z,8.50
2023-01-11T15:56:09.445Z,8.40
2023-01-11T15:58:53.175Z,8.50
2023-01-11T16:01:24.756Z,8.50
2023-01-11T16:04:03.427Z,8.40
2023-01-11T16:06:41.689Z,8.30
2023-01-11T16:09:37.207Z,8.20
2023-01-11T16:12:28.612Z,8.20
2023-01-11T16:15:18.843Z,8.00
2023-01-11T16:17:48.646Z,8.10
2023-01-11T16:20:25.342Z,8.00
2023-01-11T16:22:57.677Z,7.90
2023-01-11T16:25:30.551Z,7.90
2023-01-11T16:28:02.287Z,7.80
2023-01-11T16:30:32.088Z,7.80
2023-01-11T16:33:16.716Z,7.70
2023-01-11T16:35:44.761Z,7.70
2023-01-11T16:38:20.672Z,7.60
2023-01-11T16:40:57.078Z,7.60
2023-01-11T16:43:38.415Z,7.50
2023-01-11T16:46:20.814Z,7.50
2023-01-11T16:48:49.545Z,7.30
2023-01-11T16:51:25.268Z,7.30
2023-01-11T16:53:59.175Z,7.30
2023-01-11T16:56:27.413Z,7.20
2023-01-11T16:59:08.936Z,7.00
2023-01-11T17:01:52.664Z,7.00
2023-01-11T17:04:29.558Z,6.90
2023-01-11T17:06:58.787Z,6.90
2023-01-11T17:09:29.597Z,6.80
2023-01-11T17:12:00.562Z,6.90
2023-01-11T17:14:54.308Z,6.90
2023-01-11T17:17:29.924Z,6.90
2023-01-11T17:20:00.371Z,6.80
2023-01-11T17:22:31.775Z,6.80
2023-01-11T17:25:04.486Z,6.70
2023-01-11T17:27:42.043Z,6.80
2023-01-11T17:30:18.453Z,6.80
2023-01-11T17:32:50.427Z,6.80
2023-01-11T17:35:22.268Z,6.70
2023-01-11T17:37:52.911Z,6.60
2023-01-11T17:40:26.085Z,6.60
2023-01-11T17:43:15.307Z,6.50
2023-01-11T17:45:44.316Z,6.50
2023-01-11T17:48:18.765Z,6.50
2023-01-11T17:50:49.226Z,6.50
2023-01-11T17:53:22.949Z,6.50
2023-01-11T17:55:52.304Z,6.40
2023-01-11T17:58:25.905Z,6.40
2023-01-11T18:01:26.299Z,6.40
2023-01-11T18:04:01.534Z,6.40
2023-01-11T18:06:35.212Z,6.30
2023-01-11T18:09:17.486Z,6.20
2023-01-11T18:11:48.837Z,6.20
2023-01-11T18:14:29.255Z,6.20
2023-01-11T18:17:02.126Z,6.20
2023-01-11T18:19:48.530Z,6.00
2023-01-11T18:22:41.859Z,5.90
2023-01-11T18:25:19.617Z,5.90
2023-01-11T18:27:48.645Z,5.80
2023-01-11T18:30:37.488Z,5.90
2023-01-11T18:33:13.078Z,5.70
2023-01-11T18:35:46.167Z,5.70
2023-01-11T18:38:16.136Z,5.60
2023-01-11T18:40:44.533Z,5.60
2023-01-11T18:43:13.656Z,5.60
2023-01-11T18:45:44.875Z,5.80
2023-01-11T18:48:13.609Z,5.80
2023-01-11T18:50:48.111Z,5.90
2023-01-11T18:53:18.673Z,5.70
2023-01-11T18:55:47.211Z,5.70
2023-01-11T18:58:15.099Z,5.60
2023-01-11T19:00:44.723Z,5.70
2023-01-11T19:05:47.691Z,5.70
2023-01-11T19:08:15.828Z,5.70
2023-01-11T19:10:43.883Z,5.80
2023-01-11T19:13:20.064Z,5.80
2023-01-11T19:15:51.241Z,6.00
2023-01-11T19:18:19.559Z,6.10
2023-01-11T19:20:49.648Z,6.20
2023-01-11T19:23:17.775Z,6.20
2023-01-11T19:25:45.793Z,6.10
2023-01-11T19:28:14.066Z,6.00
2023-01-11T19:30:42.188Z,5.90
2023-01-11T19:33:12.827Z,5.80
2023-01-11T19:35:43.255Z,5.70
2023-01-11T19:38:12.592Z,5.70
2023-01-11T19:40:40.590Z,5.60
2023-01-11T19:43:08.667Z,5.60
2023-01-11T19:45:37.253Z,5.50
2023-01-11T19:48:05.746Z,5.40
2023-01-11T19:50:33.921Z,5.40
2023-01-11T19:53:01.877Z,5.30
2023-01-11T19:55:31.239Z,5.30
2023-01-11T19:57:59.276Z,5.20
2023-01-11T20:00:27.321Z,5.10
2023-01-11T20:02:55.401Z,5.00
2023-01-11T20:05:23.540Z,5.10
2023-01-11T20:07:55.203Z,5.10
2023-01-11T20:10:23.189Z,5.00
2023-01-11T20:12:55.847Z,5.00
2023-01-11T20:15:24.062Z,4.90
2023-01-11T20:17:53.277Z,4.90
2023-01-11T20:20:21.387Z,4.90
2023-01-11T20:22:52.540Z,4.90
2023-01-11T20:25:20.698Z,4.80
2023-01-11T20:27:51.357Z,4.70
2023-01-11T20:30:21.126Z,4.60
2023-01-11T20:32:49.258Z,4.60
2023-01-11T20:35:17.414Z,4.60
2023-01-11T20:37:45.419Z,4.60
2023-01-11T20:40:14.530Z,4.60
2023-01-11T20:42:42.751Z,4.60
2023-01-11T20:45:12.028Z,4.80
2023-01-11T20:47:41.645Z,5.00
2023-01-11T20:50:11.081Z,5.40
2023-01-11T20:52:42.118Z,5.40
2023-01-11T20:55:10.980Z,5.40
2023-01-11T20:58:00.297Z,5.50
2023-01-11T21:00:29.716Z,5.60
2023-01-11T21:03:02.082Z,5.60
2023-01-11T21:05:30.512Z,5.50
2023-01-11T21:08:01.887Z,5.40
2023-01-11T21:10:33.341Z,5.50
2023-01-11T21:13:03.008Z,5.50
2023-01-11T21:15:40.146Z,5.50
2023-01-11T21:18:09.536Z,5.50
2023-01-11T21:20:37.460Z,5.50
2023-01-11T21:23:05.373Z,5.40
2023-01-11T21:25:35.179Z,5.40
2023-01-11T21:28:04.239Z,5.40
2023-01-11T21:30:33.702Z,5.50
2023-01-11T21:33:10.819Z,5.50
2023-01-11T21:35:43.038Z,5.40
2023-01-11T21:38:13.726Z,5.30
2023-01-11T21:40:42.656Z,5.30
2023-01-11T21:43:14.622Z,5.30
2023-01-11T21:45:42.566Z,5.20
2023-01-11T21:48:12.715Z,5.20
2023-01-11T21:50:46.356Z,5.20
2023-01-11T21:53:14.329Z,5.20
2023-01-11T21:55:42.470Z,5.10
2023-01-11T21:58:12.528Z,4.90
2023-01-11T22:00:42.690Z,4.90
2023-01-11T22:03:11.099Z,4.80
2023-01-11T22:05:39.230Z,4.70
2023-01-11T22:08:08.631Z,4.50
2023-01-11T22:10:37.353Z,4.50
2023-01-11T22:13:07.451Z,4.50
2023-01-11T22:15:35.541Z,4.50
2023-01-11T22:18:03.746Z,4.50
2023-01-11T22:20:31.752Z,4.40
2023-01-11T22:22:59.727Z,4.40
2023-01-11T22:25:29.165Z,4.40
2023-01-11T22:27:57.146Z,4.30
2023-01-11T22:30:25.166Z,4.30
2023-01-11T22:32:53.207Z,4.30
2023-01-11T22:35:21.214Z,4.30
2023-01-11T22:37:50.216Z,4.30
2023-01-11T22:40:18.532Z,4.30
2023-01-11T22:42:49.919Z,4.30
2023-01-11T22:45:18.404Z,4.30
2023-01-11T22:47:48.380Z,4.30
2023-01-11T22:50:19.967Z,4.40
2023-01-11T22:52:47.983Z,4.60
2023-01-11T22:55:16.121Z,4.60
2023-01-11T22:57:44.182Z,4.60
2023-01-11T23:00:14.463Z,4.80
2023-01-11T23:02:44.116Z,4.90
2023-01-11T23:05:12.168Z,5.00
2023-01-11T23:07:40.148Z,5.30
2023-01-11T23:10:09.282Z,5.40
2023-01-11T23:12:54.665Z,5.50
2023-01-11T23:15:24.041Z,5.60
2023-01-11T23:17:51.986Z,5.80
2023-01-11T23:20:19.960Z,5.80
2023-01-11T23:22:53.011Z,5.90
2023-01-11T23:25:20.938Z,6.00
2023-01-11T23:27:48.845Z,6.20
2023-01-11T23:30:18.837Z,6.30
2023-01-11T23:32:48.362Z,6.30
2023-01-11T23:35:16.516Z,6.60
2023-01-11T23:37:44.484Z,6.70
2023-01-11T23:40:13.156Z,6.70
2023-01-11T23:42:40.116Z,6.80
2023-01-11T23:45:09.667Z,6.70
2023-01-11T23:47:36.604Z,6.70
2023-01-11T23:50:07.871Z,6.80
2023-01-11T23:52:36.583Z,6.90
2023-01-11T23:55:04.863Z,6.90
2023-01-11T23:57:34.858Z,6.90
